M/V Le Conte — WZE4270 — position and weather

sailwx.info

Track history (hours):
 
Tides and Currents Weather Stations Pressure Air Temp Water Temp Dewpoint Dewpoint Depression Visibility Wind Speed Wind Dir Waves Ship Positions

M/V Le Conte

Owner: ALASKA MARINE HIGHWAY SYSTEM, JUNEAU, AK. More information available from US FCC via Universal Licensing System and Coast Guard Vessel Documentation Center.

Last reported at 2018-Aug-13 21:41 UTC. Time now 2018-Aug-15 12:39 UTC.
Position N 58°14' W 135°25'.

Type: Passenger vessel. MMSI: 338761000.

Date/timePositionNaut miles runAvg speedWind from/ knotsBaromVisibWave heightAir tempDewpointWater temp
2018-Aug-13 21:41N 58°14' W 135°25'314.9
2018-Aug-13 21:30N 58°15' W 135°30'715.0
2018-Aug-13 21:00N 58°19' W 135°42'5 9.2
2018-Aug-13 20:29N 58°23' W 135°44'0 0.0
2018-Aug-13 19:59N 58°23' W 135°44'0 0.0
2018-Aug-13 19:30N 58°23' W 135°44'1 1.2
2018-Aug-13 19:00N 58°23' W 135°44'713.0
2018-Aug-13 18:30N 58°17' W 135°38'10 1.0
2018-Aug-13 07:58N 58°10' W 135°24'3 1.6
2018-Aug-13 06:01N 58°07' W 135°28'1 9.1
2018-Aug-13 05:52N 58°08' W 135°28'513.3
2018-Aug-13 05:30N 58°13' W 135°32'816.2
2018-Aug-13 05:00N 58°17' W 135°45'816.1
2018-Aug-13 04:30N 58°19' W 135°59'815.1
2018-Aug-13 04:00N 58°18' W 136°13'11 1.9
2018-Aug-12 22:09N 58°10' W 136°28'613.5
2018-Aug-12 21:44N 58°14' W 136°20'314.4
2018-Aug-12 21:30N 58°15' W 136°14'714.3
2018-Aug-12 21:00N 58°16' W 136°01'714.0
2018-Aug-12 20:30N 58°18' W 135°48'713.5
2018-Aug-12 20:00N 58°15' W 135°37'  
2018-Aug-08 23:11N 58°11' W 135°28'314.6
2018-Aug-08 22:59N 58°13' W 135°31'815.1
2018-Aug-08 22:29N 58°18' W 135°42'5 8.9
2018-Aug-08 21:55N 58°23' W 135°44'0 0.0
2018-Aug-08 21:25N 58°23' W 135°44'0 0.0
2018-Aug-08 20:55N 58°23' W 135°44'2 3.7
2018-Aug-08 20:31N 58°22' W 135°46'815.9
2018-Aug-08 19:59N 58°16' W 135°34'6 0.1
2018-Aug-06 21:38N 58°14' W 135°23'215.6
2018-Aug-06 21:29N 58°15' W 135°27'715.4
2018-Aug-06 21:00N 58°17' W 135°40'612.2
2018-Aug-06 20:30N 58°23' W 135°44'0 0.1
2018-Aug-06 19:56N 58°23' W 135°44'0 0.0
2018-Aug-06 19:27N 58°23' W 135°44'0 0.3
2018-Aug-06 19:00N 58°23' W 135°44'612.4
2018-Aug-06 18:30N 58°17' W 135°39'11 0.5
2018-Aug-05 19:45N 58°09' W 135°27'  
Track history (hours):
 
Tides and Currents Weather Stations Pressure Air Temp Water Temp Dewpoint Dewpoint Depression Visibility Wind Speed Wind Dir Waves Ship Positions

M/V Le Conte

Owner: ALASKA MARINE HIGHWAY SYSTEM, JUNEAU, AK. More information available from US FCC via Universal Licensing System and Coast Guard Vessel Documentation Center.

Last reported at 2018-Aug-13 21:41 UTC. Time now 2018-Aug-15 12:39 UTC.
Position N 58°14' W 135°25'.

Type: Passenger vessel. MMSI: 338761000.

Date/timePositionNaut miles runAvg speedWind from/ knotsBaromVisibWave heightAir tempDewpointWater temp
2018-Aug-13 21:41N 58°14' W 135°25'314.9
2018-Aug-13 21:30N 58°15' W 135°30'715.0
2018-Aug-13 21:00N 58°19' W 135°42'5 9.2
2018-Aug-13 20:29N 58°23' W 135°44'0 0.0
2018-Aug-13 19:59N 58°23' W 135°44'0 0.0
2018-Aug-13 19:30N 58°23' W 135°44'1 1.2
2018-Aug-13 19:00N 58°23' W 135°44'713.0
2018-Aug-13 18:30N 58°17' W 135°38'10 1.0
2018-Aug-13 07:58N 58°10' W 135°24'3 1.6
2018-Aug-13 06:01N 58°07' W 135°28'1 9.1
2018-Aug-13 05:52N 58°08' W 135°28'513.3
2018-Aug-13 05:30N 58°13' W 135°32'816.2
2018-Aug-13 05:00N 58°17' W 135°45'816.1
2018-Aug-13 04:30N 58°19' W 135°59'815.1
2018-Aug-13 04:00N 58°18' W 136°13'11 1.9
2018-Aug-12 22:09N 58°10' W 136°28'613.5
2018-Aug-12 21:44N 58°14' W 136°20'314.4
2018-Aug-12 21:30N 58°15' W 136°14'714.3
2018-Aug-12 21:00N 58°16' W 136°01'714.0
2018-Aug-12 20:30N 58°18' W 135°48'713.5
2018-Aug-12 20:00N 58°15' W 135°37'  
2018-Aug-08 23:11N 58°11' W 135°28'314.6
2018-Aug-08 22:59N 58°13' W 135°31'815.1
2018-Aug-08 22:29N 58°18' W 135°42'5 8.9
2018-Aug-08 21:55N 58°23' W 135°44'0 0.0
2018-Aug-08 21:25N 58°23' W 135°44'0 0.0
2018-Aug-08 20:55N 58°23' W 135°44'2 3.7
2018-Aug-08 20:31N 58°22' W 135°46'815.9
2018-Aug-08 19:59N 58°16' W 135°34'6 0.1
2018-Aug-06 21:38N 58°14' W 135°23'215.6
2018-Aug-06 21:29N 58°15' W 135°27'715.4
2018-Aug-06 21:00N 58°17' W 135°40'612.2
2018-Aug-06 20:30N 58°23' W 135°44'0 0.1
2018-Aug-06 19:56N 58°23' W 135°44'0 0.0
2018-Aug-06 19:27N 58°23' W 135°44'0 0.3
2018-Aug-06 19:00N 58°23' W 135°44'612.4
2018-Aug-06 18:30N 58°17' W 135°39'11 0.5
2018-Aug-05 19:45N 58°09' W 135°27'  

Dump ship's entire track history